Time;durP1;ratioP1;P1;durP2;ratioP2;P2;SDS_P1;SDS_P2;PMS_P1;PMS_P2;Temp;Humidity;BMP_temperature;BMP_pressure;BME280_temperature;BME280_humidity;BME280_pressure;Samples;Min_cycle;Max_cycle;Signal;HPM_P1;HPM_P2
2023/10/07 00:00:40;;;;;;;2.05;0.20;;;16.20;99.90;;;;;;4971045;28;20043;-73
2023/10/07 00:03:06;;;;;;;1.00;0.40;;;16.20;99.90;;;;;;4948460;28;20508;-73
2023/10/07 00:05:35;;;;;;;4.03;0.50;;;16.20;99.90;;;;;;4968622;28;20121;-74
2023/10/07 00:08:16;;;;;;;1.63;0.50;;;16.20;99.90;;;;;;4943635;28;20039;-73
2023/10/07 00:10:46;;;;;;;2.78;0.60;;;16.20;99.90;;;;;;4945966;28;20047;-73
2023/10/07 00:13:13;;;;;;;3.90;0.88;;;16.20;99.90;;;;;;4967902;28;20070;-73
2023/10/07 00:15:43;;;;;;;2.65;0.73;;;16.20;99.90;;;;;;4950970;28;20515;-73
2023/10/07 00:18:13;;;;;;;3.20;0.52;;;16.30;99.90;;;;;;4931573;28;20165;-74
2023/10/07 00:20:56;;;;;;;4.00;0.43;;;16.20;99.90;;;;;;4951839;28;20129;-73
2023/10/07 00:23:26;;;;;;;6.15;0.70;;;16.30;99.90;;;;;;4948839;28;20043;-73
2023/10/07 00:25:54;;;;;;;5.93;1.40;;;16.20;99.90;;;;;;4961821;28;20074;-73
2023/10/07 00:30:55;;;;;;;4.22;0.85;;;16.30;99.90;;;;;;4948416;28;20495;-73
2023/10/07 00:33:22;;;;;;;7.57;0.63;;;16.30;99.90;;;;;;4951875;28;20398;-73
2023/10/07 00:35:54;;;;;;;6.40;0.63;;;16.20;99.90;;;;;;4945440;28;20051;-73
2023/10/07 00:38:23;;;;;;;1.95;0.40;;;16.30;99.90;;;;;;4945435;28;20089;-73
2023/10/07 00:40:54;;;;;;;1.25;0.45;;;16.30;99.90;;;;;;4966982;28;20118;-73
2023/10/07 00:43:30;;;;;;;6.07;1.00;;;16.30;99.90;;;;;;4946934;28;20047;-73
2023/10/07 00:46:10;;;;;;;3.05;0.30;;;16.30;99.90;;;;;;4969008;28;20086;-73
2023/10/07 00:48:47;;;;;;;3.38;0.30;;;16.30;99.90;;;;;;4967290;28;20047;-74
2023/10/07 00:51:17;;;;;;;2.25;0.43;;;16.30;99.90;;;;;;4949029;28;20067;-73
2023/10/07 00:53:52;;;;;;;1.85;0.30;;;16.30;99.90;;;;;;4944043;28;20090;-73
2023/10/07 00:56:22;;;;;;;1.33;0.40;;;16.30;99.90;;;;;;4942260;28;20372;-73
2023/10/07 00:58:52;;;;;;;1.75;0.73;;;16.40;99.90;;;;;;4943226;28;20051;-74
2023/10/07 01:01:19;;;;;;;3.83;0.82;;;16.40;99.90;;;;;;4952369;28;20038;-74
2023/10/07 01:03:48;;;;;;;8.75;0.93;;;16.40;99.90;;;;;;4955210;28;20371;-73
2023/10/07 01:06:27;;;;;;;4.63;0.30;;;16.40;99.90;;;;;;4964765;28;20039;-73
2023/10/07 01:09:07;;;;;;;0.80;0.45;;;16.40;99.90;;;;;;4955020;28;20396;-73
2023/10/07 01:11:37;;;;;;;5.05;0.45;;;16.40;99.90;;;;;;4948684;28;20440;-73
2023/10/07 01:14:05;;;;;;;3.50;1.30;;;16.50;99.90;;;;;;4951985;28;20068;-73
2023/10/07 01:21:59;;;;;;;1.23;0.47;;;16.50;99.90;;;;;;4925842;28;21073;-73
2023/10/07 01:24:44;;;;;;;1.27;0.20;;;16.50;99.90;;;;;;4950971;28;20043;-73
2023/10/07 01:30:07;;;;;;;3.30;0.57;;;16.60;99.90;;;;;;4948452;28;20051;-74
2023/10/07 01:32:33;;;;;;;1.10;0.55;;;16.60;99.90;;;;;;4955527;28;20105;-73
2023/10/07 01:35:05;;;;;;;6.55;0.80;;;16.60;99.90;;;;;;4956740;28;20042;-73
2023/10/07 01:37:43;;;;;;;2.28;0.63;;;16.60;99.90;;;;;;4947797;28;20061;-73
2023/10/07 01:40:15;;;;;;;4.50;0.88;;;16.60;99.90;;;;;;4959397;28;20038;-72
2023/10/07 01:42:42;;;;;;;1.48;0.82;;;16.60;99.90;;;;;;4948636;28;20665;-73
2023/10/07 01:45:20;;;;;;;2.60;0.40;;;16.60;99.90;;;;;;4949816;28;20129;-73
2023/10/07 01:47:55;;;;;;;1.77;0.50;;;16.60;99.90;;;;;;4952645;28;20461;-73
2023/10/07 01:50:23;;;;;;;1.35;0.38;;;16.60;99.90;;;;;;4952040;28;20045;-73
2023/10/07 01:52:49;;;;;;;4.50;0.77;;;16.60;99.90;;;;;;4949469;28;20070;-73
2023/10/07 01:55:19;;;;;;;3.08;0.43;;;16.60;99.90;;;;;;4963775;28;20031;-73
2023/10/07 01:57:48;;;;;;;4.28;0.73;;;16.60;99.90;;;;;;4945742;28;20133;-73
2023/10/07 02:00:34;;;;;;;0.68;0.43;;;16.60;99.90;;;;;;4949694;28;20117;-73
2023/10/07 02:03:02;;;;;;;4.25;0.60;;;16.60;99.90;;;;;;4948167;28;20114;-72
2023/10/07 02:05:28;;;;;;;3.08;0.50;;;16.60;99.90;;;;;;4953190;28;20047;-72
2023/10/07 02:07:55;;;;;;;2.28;0.60;;;16.60;99.90;;;;;;4948426;28;20047;-72
2023/10/07 02:10:26;;;;;;;1.13;0.50;;;16.60;99.90;;;;;;4950525;28;20066;-72
2023/10/07 02:12:54;;;;;;;5.38;0.40;;;16.60;99.90;;;;;;4930801;28;20065;-72
2023/10/07 02:15:20;;;;;;;1.35;0.50;;;16.60;99.90;;;;;;4965685;28;20487;-72
2023/10/07 02:17:47;;;;;;;3.40;0.70;;;16.60;99.90;;;;;;4954612;28;20054;-72
2023/10/07 02:20:25;;;;;;;1.83;0.40;;;16.70;99.90;;;;;;4950319;28;20038;-72
2023/10/07 02:22:52;;;;;;;2.42;0.57;;;16.70;99.90;;;;;;4944178;28;20043;-72
2023/10/07 02:25:26;;;;;;;2.47;0.65;;;16.70;99.90;;;;;;4945552;28;20047;-72
2023/10/07 02:27:52;;;;;;;2.20;0.40;;;16.70;99.90;;;;;;4949528;28;20117;-73
2023/10/07 02:30:20;;;;;;;2.10;0.38;;;16.80;99.90;;;;;;4951063;28;20131;-72
2023/10/07 02:32:47;;;;;;;2.00;0.50;;;16.80;99.90;;;;;;4951268;28;20042;-72
2023/10/07 02:35:19;;;;;;;1.50;0.47;;;16.80;99.90;;;;;;4949781;28;20491;-72
2023/10/07 02:37:49;;;;;;;0.73;0.43;;;16.80;99.90;;;;;;4953943;28;20042;-72
2023/10/07 02:40:48;;;;;;;4.03;0.77;;;16.90;99.90;;;;;;4953254;28;20043;-72
2023/10/07 02:43:15;;;;;;;2.35;0.50;;;16.80;99.90;;;;;;4959704;28;20073;-72
2023/10/07 02:45:47;;;;;;;2.58;0.43;;;16.90;99.90;;;;;;5132221;27;1333580;-73
2023/10/07 02:48:13;;;;;;;2.40;0.70;;;16.90;99.90;;;;;;5154758;27;20047;-72
2023/10/07 02:50:41;;;;;;;1.17;0.38;;;16.90;99.90;;;;;;5145679;27;20111;-72
2023/10/07 02:53:13;;;;;;;3.42;0.88;;;16.90;99.90;;;;;;5163482;27;20034;-72
2023/10/07 02:58:41;;;;;;;2.90;0.85;;;17.00;99.90;;;;;;5111963;27;20051;-72
2023/10/07 03:01:16;;;;;;;5.03;0.60;;;16.90;99.90;;;;;;5124430;27;20122;-72
2023/10/07 03:03:48;;;;;;;7.05;0.93;;;17.00;99.90;;;;;;5130289;27;20122;-73
2023/10/07 03:06:17;;;;;;;2.75;0.88;;;17.00;99.90;;;;;;5129207;27;20035;-72
2023/10/07 03:11:20;;;;;;;3.00;0.63;;;17.00;99.90;;;;;;5129261;27;20062;-72
2023/10/07 03:13:47;;;;;;;4.60;0.40;;;17.00;99.90;;;;;;5125840;27;20065;-72
2023/10/07 03:19:06;;;;;;;2.83;0.70;;;17.00;99.90;;;;;;5129793;27;20074;-72
2023/10/07 03:21:54;;;;;;;1.88;0.68;;;17.00;99.90;;;;;;5125257;27;20082;-73
2023/10/07 03:24:29;;;;;;;5.72;0.90;;;17.00;99.90;;;;;;5126774;27;20094;-73
2023/10/07 03:27:11;;;;;;;0.98;0.40;;;17.00;99.90;;;;;;5108949;27;20035;-72
2023/10/07 03:29:39;;;;;;;1.85;0.40;;;17.00;99.90;;;;;;5110791;27;20039;-72
2023/10/07 03:32:12;;;;;;;2.45;0.38;;;17.00;99.90;;;;;;5124398;27;20039;-72
2023/10/07 03:34:42;;;;;;;5.30;0.90;;;17.00;99.90;;;;;;5109886;27;20047;-72
2023/10/07 03:39:56;;;;;;;7.20;0.85;;;17.00;99.90;;;;;;5128162;27;20402;-71
2023/10/07 03:42:22;;;;;;;1.38;0.43;;;17.00;99.90;;;;;;5126796;27;20042;-73
2023/10/07 03:44:49;;;;;;;4.13;0.70;;;17.00;99.90;;;;;;5126931;27;20047;-72
2023/10/07 03:47:16;;;;;;;1.10;0.40;;;17.00;99.90;;;;;;5127484;27;20081;-72
2023/10/07 03:49:48;;;;;;;4.40;0.68;;;17.00;99.90;;;;;;5128967;27;20087;-72
2023/10/07 03:52:19;;;;;;;2.58;0.82;;;17.00;99.90;;;;;;5121405;27;20038;-72
2023/10/07 03:54:46;;;;;;;1.95;0.60;;;17.00;99.90;;;;;;5127840;27;20140;-72
2023/10/07 03:57:11;;;;;;;1.73;0.70;;;17.10;99.90;;;;;;5114085;27;20076;-72
2023/10/07 03:59:37;;;;;;;1.88;0.30;;;17.10;99.90;;;;;;5114150;27;20053;-72
2023/10/07 04:03:07;;;;;;;4.82;0.63;;;17.10;99.90;;;;;;5113390;27;20096;-72
2023/10/07 04:05:10;;;;;;;0.88;0.38;;;17.10;99.90;;;;;;5089965;27;20461;-72
2023/10/07 04:07:36;;;;;;;3.08;0.65;;;17.10;99.90;;;;;;5112955;27;20035;-72
2023/10/07 04:10:13;;;;;;;0.75;0.57;;;17.00;99.90;;;;;;5115280;27;20039;-72
2023/10/07 04:12:39;;;;;;;2.92;0.63;;;17.10;99.90;;;;;;5111307;27;20409;-71
2023/10/07 04:15:10;;;;;;;1.95;0.40;;;17.00;99.90;;;;;;5100245;27;20054;-72
2023/10/07 04:17:38;;;;;;;6.45;0.52;;;17.10;99.90;;;;;;5096358;27;20047;-72
2023/10/07 04:20:18;;;;;;;0.80;0.40;;;17.10;99.90;;;;;;5114079;27;20108;-71
2023/10/07 04:22:57;;;;;;;1.00;0.30;;;17.10;99.90;;;;;;5105356;27;20035;-72
2023/10/07 04:25:24;;;;;;;1.00;0.63;;;17.10;99.90;;;;;;5114720;27;20043;-72
2023/10/07 04:27:53;;;;;;;2.28;0.82;;;17.10;99.90;;;;;;5097363;27;20050;-72
2023/10/07 04:30:24;;;;;;;5.43;0.60;;;17.10;99.90;;;;;;5096982;27;20035;-71
2023/10/07 04:32:53;;;;;;;1.27;0.55;;;17.10;99.90;;;;;;5113499;27;20367;-71
2023/10/07 04:35:26;;;;;;;2.65;0.65;;;17.10;99.90;;;;;;5112947;27;20056;-72
2023/10/07 04:37:59;;;;;;;5.90;0.68;;;17.10;99.90;;;;;;5113141;27;20516;-72
2023/10/07 04:43:25;;;;;;;5.10;0.75;;;17.10;99.90;;;;;;5113142;27;20051;-72
2023/10/07 04:45:49;;;;;;;3.47;0.75;;;17.10;99.90;;;;;;5104938;28;20055;-72
2023/10/07 04:48:40;;;;;;;0.88;0.60;;;17.10;99.90;;;;;;5111837;28;20039;-72
2023/10/07 04:51:12;;;;;;;6.22;1.15;;;17.10;99.90;;;;;;5111351;28;20118;-71
2023/10/07 04:53:39;;;;;;;5.75;0.63;;;17.10;99.90;;;;;;5107682;28;20482;-71
2023/10/07 04:56:10;;;;;;;1.17;0.47;;;17.10;99.90;;;;;;5107492;28;20687;-72
2023/10/07 04:58:40;;;;;;;2.17;0.50;;;17.10;99.90;;;;;;5110239;28;20553;-72
2023/10/07 05:01:56;;;;;;;2.92;0.70;;;17.10;99.90;;;;;;5109582;28;20036;-72
2023/10/07 05:03:58;;;;;;;4.03;0.60;;;17.10;99.90;;;;;;5099167;28;20105;-72
2023/10/07 05:06:28;;;;;;;1.73;0.50;;;17.10;99.90;;;;;;5110706;28;20456;-72
2023/10/07 05:08:54;;;;;;;1.63;0.63;;;17.00;99.90;;;;;;5109643;28;20112;-72
2023/10/07 05:11:20;;;;;;;1.83;0.52;;;17.10;99.90;;;;;;5111838;28;20311;-72
2023/10/07 05:13:46;;;;;;;1.52;0.40;;;17.00;99.90;;;;;;5106618;28;20047;-72
2023/10/07 05:16:13;;;;;;;2.53;0.50;;;17.00;99.90;;;;;;5106406;28;20491;-72
2023/10/07 05:18:39;;;;;;;4.32;0.30;;;17.00;99.90;;;;;;5107535;28;20043;-72
2023/10/07 05:21:06;;;;;;;2.72;0.68;;;17.00;99.90;;;;;;5108651;28;20092;-71
2023/10/07 05:23:33;;;;;;;0.32;0.10;;;17.00;99.90;;;;;;5088735;28;20035;-72
2023/10/07 05:26:03;;;;;;;1.30;0.40;;;17.00;99.90;;;;;;5089080;28;20042;-72
2023/10/07 05:28:32;;;;;;;5.18;0.73;;;17.00;99.90;;;;;;5106200;28;20220;-72
2023/10/07 05:31:00;;;;;;;4.80;0.80;;;17.00;99.90;;;;;;5091533;28;20032;-72
2023/10/07 05:33:28;;;;;;;0.75;0.20;;;17.00;99.90;;;;;;5103407;28;20032;-72
2023/10/07 05:35:59;;;;;;;1.67;0.63;;;17.00;99.90;;;;;;5106252;28;20118;-72
2023/10/07 05:38:25;;;;;;;1.55;0.70;;;17.00;99.90;;;;;;5103606;28;20118;-73
2023/10/07 05:41:00;;;;;;;4.18;0.55;;;17.00;99.90;;;;;;5105905;28;20452;-72
2023/10/07 05:43:26;;;;;;;4.00;0.47;;;17.00;99.90;;;;;;5105106;28;20054;-72
2023/10/07 05:45:52;;;;;;;3.13;0.68;;;17.00;99.90;;;;;;5105366;28;20155;-72
2023/10/07 05:48:19;;;;;;;4.68;0.80;;;17.00;99.90;;;;;;5092268;28;20051;-71
2023/10/07 05:50:44;;;;;;;1.92;0.55;;;17.00;99.90;;;;;;5105624;28;20483;-72
2023/10/07 05:53:10;;;;;;;1.15;0.25;;;17.00;99.90;;;;;;5107975;28;20036;-72
2023/10/07 05:55:36;;;;;;;3.95;0.50;;;17.00;99.90;;;;;;5092653;28;20035;-72
2023/10/07 05:58:02;;;;;;;0.93;0.52;;;17.00;99.90;;;;;;5106391;28;20028;-72
2023/10/07 06:00:31;;;;;;;3.05;0.73;;;17.00;99.90;;;;;;5087804;28;20031;-72
2023/10/07 06:03:02;;;;;;;1.52;0.30;;;16.90;99.90;;;;;;5087166;28;20069;-71
2023/10/07 06:05:29;;;;;;;6.65;0.88;;;16.90;99.90;;;;;;5102013;27;20044;-72
2023/10/07 06:07:57;;;;;;;1.25;0.40;;;16.90;99.90;;;;;;5100969;28;20036;-72
2023/10/07 06:10:24;;;;;;;1.95;0.50;;;17.00;99.90;;;;;;5105317;28;20043;-71
2023/10/07 06:12:53;;;;;;;2.20;0.32;;;17.00;99.90;;;;;;5106193;28;20108;-72
2023/10/07 06:15:20;;;;;;;3.45;1.10;;;17.00;99.90;;;;;;5103931;28;20439;-71
2023/10/07 06:17:46;;;;;;;1.45;0.40;;;17.00;99.90;;;;;;5087152;28;20054;-71
2023/10/07 06:20:14;;;;;;;1.52;0.47;;;17.00;99.90;;;;;;5087740;28;20036;-72
2023/10/07 06:22:48;;;;;;;2.83;0.63;;;17.00;99.90;;;;;;5102563;28;20054;-72
2023/10/07 06:25:15;;;;;;;1.83;0.30;;;17.00;99.90;;;;;;5100038;28;20043;-72
2023/10/07 06:27:45;;;;;;;1.85;0.50;;;17.00;99.90;;;;;;5106161;28;20067;-72
2023/10/07 06:30:16;;;;;;;2.92;0.70;;;17.00;99.90;;;;;;5105206;28;20422;-72
2023/10/07 06:32:44;;;;;;;1.83;0.80;;;17.00;99.90;;;;;;5105105;28;20042;-71
2023/10/07 06:35:14;;;;;;;1.25;0.43;;;17.00;99.90;;;;;;5097310;28;20104;-72
2023/10/07 06:37:43;;;;;;;1.98;0.60;;;17.00;99.90;;;;;;5106465;28;20043;-73
2023/10/07 06:40:24;;;;;;;3.38;0.80;;;17.00;99.90;;;;;;5103315;28;20036;-72
2023/10/07 06:42:50;;;;;;;2.22;0.57;;;17.00;99.90;;;;;;5090399;28;20036;-72
2023/10/07 06:45:17;;;;;;;0.73;0.32;;;17.00;99.90;;;;;;5102071;28;20303;-71
2023/10/07 06:47:46;;;;;;;1.42;0.55;;;17.00;99.90;;;;;;5106555;28;20368;-72
2023/10/07 06:50:27;;;;;;;1.38;0.43;;;17.00;99.90;;;;;;5103522;28;20067;-72
2023/10/07 06:52:55;;;;;;;3.65;0.30;;;17.00;99.90;;;;;;5088929;28;20100;-72
2023/10/07 06:55:22;;;;;;;1.90;0.60;;;17.00;99.90;;;;;;5104610;28;20059;-72
2023/10/07 06:57:48;;;;;;;2.95;0.47;;;17.00;99.90;;;;;;5103521;28;20047;-72
2023/10/07 07:00:25;;;;;;;3.08;0.60;;;17.00;99.90;;;;;;5104597;28;20042;-72
2023/10/07 07:02:57;;;;;;;2.17;0.63;;;17.10;99.90;;;;;;5105259;28;20055;-72
2023/10/07 07:05:24;;;;;;;3.35;0.43;;;17.10;99.90;;;;;;5103860;28;20487;-72
2023/10/07 07:07:52;;;;;;;7.25;1.08;;;17.10;99.90;;;;;;5106090;28;20131;-72
2023/10/07 07:10:28;;;;;;;3.00;0.68;;;17.10;99.90;;;;;;5103698;28;20483;-72
2023/10/07 07:13:13;;;;;;;6.07;0.77;;;17.20;99.90;;;;;;5101730;28;20857;-72
2023/10/07 07:15:43;;;;;;;1.00;0.50;;;17.20;99.90;;;;;;5105451;28;20395;-72
2023/10/07 07:23:20;;;;;;;1.30;0.50;;;17.30;99.90;;;;;;5105765;28;20464;-73
2023/10/07 07:28:30;;;;;;;5.23;0.50;;;17.50;99.90;;;;;;5103669;28;20497;-72
2023/10/07 07:30:59;;;;;;;4.18;0.50;;;17.60;99.90;;;;;;5110688;28;20044;-73
2023/10/07 07:33:29;;;;;;;1.98;0.65;;;17.70;99.90;;;;;;5105234;28;20031;-73
2023/10/07 07:35:58;;;;;;;1.55;0.50;;;17.70;99.90;;;;;;5093689;28;20120;-73
2023/10/07 07:38:30;;;;;;;1.40;0.60;;;17.80;99.90;;;;;;5109106;28;20116;-73
2023/10/07 07:41:06;;;;;;;3.35;0.60;;;17.80;99.90;;;;;;5112458;28;20027;-72
2023/10/07 07:43:34;;;;;;;2.40;0.52;;;18.00;99.90;;;;;;5109479;27;20118;-72
2023/10/07 07:46:18;;;;;;;3.65;0.80;;;18.00;99.90;;;;;;5108825;28;20055;-72
2023/10/07 07:48:50;;;;;;;0.88;0.40;;;18.10;99.90;;;;;;5103477;28;20126;-72
2023/10/07 07:51:17;;;;;;;5.78;0.68;;;18.20;99.90;;;;;;5113043;27;20043;-73
2023/10/07 07:53:43;;;;;;;1.48;0.55;;;18.20;99.90;;;;;;5104503;28;20043;-72
2023/10/07 07:56:13;;;;;;;1.77;0.80;;;18.10;99.90;;;;;;5096337;28;20062;-73
2023/10/07 07:58:49;;;;;;;3.67;0.50;;;18.10;99.90;;;;;;5104018;28;20126;-73
2023/10/07 08:01:18;;;;;;;0.95;0.30;;;18.20;99.90;;;;;;5109075;27;20048;-73
2023/10/07 08:03:47;;;;;;;4.32;0.70;;;18.20;99.90;;;;;;5105657;28;20040;-72
2023/10/07 08:06:19;;;;;;;2.28;0.52;;;18.30;99.90;;;;;;5111777;28;20046;-72
2023/10/07 08:08:53;;;;;;;2.30;0.45;;;18.40;99.90;;;;;;5106692;28;21159;-70
2023/10/07 08:11:19;;;;;;;;;;;18.50;99.90;;;;;;5106977;28;20028;-71
2023/10/07 08:13:46;;;;;;;0.90;0.20;;;18.70;99.90;;;;;;5112146;28;20433;-72
2023/10/07 08:16:19;;;;;;;2.63;0.98;;;18.70;99.90;;;;;;5105995;28;20035;-72
2023/10/07 08:18:53;;;;;;;3.63;0.55;;;18.70;99.90;;;;;;5110900;28;20054;-72
2023/10/07 08:21:28;;;;;;;3.15;0.75;;;18.60;99.90;;;;;;5093858;28;20282;-72
2023/10/07 08:23:54;;;;;;;3.70;0.73;;;18.50;99.90;;;;;;5113195;28;20058;-72
2023/10/07 08:26:23;;;;;;;2.10;0.50;;;18.50;99.90;;;;;;5110188;28;20037;-73
2023/10/07 08:31:37;;;;;;;2.00;0.40;;;18.40;99.90;;;;;;5107048;28;20039;-73
2023/10/07 08:36:36;;;;;;;4.30;0.85;;;18.20;99.90;;;;;;5104587;28;20119;-71
2023/10/07 08:39:06;;;;;;;4.65;0.85;;;18.20;99.90;;;;;;5111487;28;20511;-72
2023/10/07 08:41:32;;;;;;;2.97;0.80;;;18.30;99.90;;;;;;5104407;28;20059;-73
2023/10/07 08:44:15;;;;;;;2.03;0.43;;;18.30;99.90;;;;;;5098679;27;20102;-72
2023/10/07 08:46:56;;;;;;;1.15;0.50;;;18.30;99.90;;;;;;5111578;27;20087;-72
2023/10/07 08:49:26;;;;;;;2.95;0.52;;;18.20;99.90;;;;;;5112825;27;20509;-72
2023/10/07 08:51:54;;;;;;;1.35;0.60;;;18.30;99.90;;;;;;5109635;27;20324;-72
2023/10/07 08:54:31;;;;;;;3.72;0.63;;;18.20;99.90;;;;;;5106675;27;20043;-72
2023/10/07 08:57:02;;;;;;;2.17;0.30;;;18.20;99.90;;;;;;5092777;27;20043;-71
2023/10/07 08:59:31;;;;;;;2.53;0.43;;;18.20;99.90;;;;;;5110238;27;20039;-72
2023/10/07 09:01:57;;;;;;;1.92;0.50;;;18.20;99.90;;;;;;5094762;27;20407;-72
2023/10/07 09:04:24;;;;;;;2.75;0.60;;;18.20;99.90;;;;;;5112578;27;20035;-72
2023/10/07 09:06:50;;;;;;;4.35;0.90;;;18.30;99.90;;;;;;5091173;27;20047;-72
2023/10/07 09:09:35;;;;;;;5.53;1.02;;;18.40;99.90;;;;;;5113618;27;20661;-72
2023/10/07 09:12:11;;;;;;;2.67;0.73;;;18.40;99.90;;;;;;5113111;27;20050;-72
2023/10/07 09:14:40;;;;;;;8.13;0.97;;;18.50;99.90;;;;;;5114246;27;20043;-72
2023/10/07 09:17:09;;;;;;;2.67;0.63;;;18.60;99.90;;;;;;5107426;28;20062;-72
2023/10/07 09:19:36;;;;;;;4.65;0.93;;;18.70;99.90;;;;;;5096394;27;20043;-72
2023/10/07 09:22:10;;;;;;;5.20;0.93;;;18.80;99.90;;;;;;5093772;27;20035;-73
2023/10/07 09:24:41;;;;;;;4.55;0.38;;;18.90;99.90;;;;;;5113508;27;20039;-72
2023/10/07 09:27:12;;;;;;;4.85;0.70;;;19.00;99.90;;;;;;5110531;27;20035;-72
2023/10/07 09:29:39;;;;;;;1.33;0.43;;;19.00;99.90;;;;;;5113136;27;20042;-71
2023/10/07 09:32:06;;;;;;;7.20;1.70;;;19.10;99.90;;;;;;5114756;27;20122;-72
2023/10/07 09:34:47;;;;;;;1.58;0.50;;;19.20;99.90;;;;;;5106461;27;20043;-72
2023/10/07 09:37:17;;;;;;;2.53;0.57;;;19.20;99.90;;;;;;5109448;27;20097;-73
2023/10/07 09:39:44;;;;;;;3.13;0.50;;;19.30;99.90;;;;;;5104633;27;20039;-72
2023/10/07 09:42:56;;;;;;;1.02;0.40;;;19.30;99.90;;;;;;5110296;27;20478;-72
2023/10/07 09:47:37;;;;;;;4.45;0.75;;;19.30;99.90;;;;;;5109806;27;20347;-73
2023/10/07 09:50:10;;;;;;;2.20;0.77;;;19.30;99.90;;;;;;5108175;27;20035;-72
2023/10/07 09:52:41;;;;;;;2.10;0.60;;;19.30;99.90;;;;;;5107252;27;20093;-72
2023/10/07 09:55:23;;;;;;;2.03;0.80;;;19.30;99.90;;;;;;5100825;27;20043;-73
2023/10/07 09:57:59;;;;;;;0.60;0.38;;;19.20;99.90;;;;;;5110752;27;20435;-73
2023/10/07 10:00:43;;;;;;;4.28;0.82;;;19.20;99.90;;;;;;5104704;27;20581;-72
2023/10/07 10:03:39;;;;;;;6.35;0.68;;;19.20;99.90;;;;;;5110881;27;20066;-73
2023/10/07 10:06:33;;;;;;;1.55;0.55;;;19.10;99.90;;;;;;5105308;27;20050;-72
2023/10/07 10:09:09;;;;;;;2.95;0.40;;;19.10;99.90;;;;;;5107753;27;20091;-73
2023/10/07 10:14:29;;;;;;;2.10;0.70;;;19.00;99.90;;;;;;5107787;27;20134;-73
2023/10/07 10:16:57;;;;;;;4.75;0.73;;;19.00;99.90;;;;;;5125616;27;20079;-72
2023/10/07 10:19:44;;;;;;;3.88;0.73;;;18.90;99.90;;;;;;5108138;27;20066;-73
2023/10/07 10:22:11;;;;;;;3.42;0.70;;;18.90;99.90;;;;;;5107624;27;20126;-72
2023/10/07 10:24:43;;;;;;;3.00;0.68;;;19.00;99.90;;;;;;5106702;28;20511;-72
2023/10/07 10:27:10;;;;;;;5.97;0.60;;;19.00;99.90;;;;;;5107301;27;20127;-73
2023/10/07 10:30:05;;;;;;;3.88;0.60;;;19.10;99.90;;;;;;5109681;28;20063;-73
2023/10/07 10:32:36;;;;;;;6.10;0.82;;;19.10;99.90;;;;;;5107967;27;20399;-73
2023/10/07 10:35:06;;;;;;;1.98;0.50;;;19.20;99.90;;;;;;5111008;27;20421;-72
2023/10/07 10:37:33;;;;;;;3.17;0.75;;;19.30;99.90;;;;;;5109350;27;20226;-72
2023/10/07 10:40:12;;;;;;;1.95;0.52;;;19.40;99.90;;;;;;5109640;27;20039;-72
2023/10/07 10:42:41;;;;;;;3.03;0.40;;;19.40;99.90;;;;;;5101586;28;20047;-72
2023/10/07 10:45:15;;;;;;;1.73;0.28;;;19.50;99.90;;;;;;5126552;28;20070;-72
2023/10/07 10:47:44;;;;;;;;;;;19.60;99.90;;;;;;5101124;28;20082;-72
2023/10/07 10:50:16;;;;;;;3.45;1.00;;;19.70;99.90;;;;;;5109524;28;19931;-72
2023/10/07 10:52:43;;;;;;;0.90;0.38;;;19.80;99.90;;;;;;5104181;28;20312;-72
2023/10/07 10:55:11;;;;;;;1.65;0.52;;;19.90;99.90;;;;;;5110740;28;20081;-72
2023/10/07 10:57:40;;;;;;;1.35;0.75;;;19.90;99.90;;;;;;5107726;28;20074;-73
2023/10/07 11:00:19;;;;;;;2.53;0.60;;;19.90;99.90;;;;;;5108524;28;20074;-74
2023/10/07 11:02:55;;;;;;;3.90;0.68;;;19.90;99.90;;;;;;5108283;28;20483;-72
2023/10/07 11:05:21;;;;;;;2.28;0.75;;;19.90;99.90;;;;;;5103712;27;20122;-72
2023/10/07 11:07:50;;;;;;;3.63;0.52;;;19.80;99.90;;;;;;5106897;27;20579;-72
2023/10/07 11:10:23;;;;;;;5.18;0.75;;;19.90;99.90;;;;;;5099432;27;20406;-72
2023/10/07 11:12:56;;;;;;;1.50;0.38;;;19.80;99.90;;;;;;5096871;27;20048;-72
2023/10/07 11:15:26;;;;;;;2.57;0.53;;;19.80;99.90;;;;;;5112282;27;20043;-73
2023/10/07 11:18:11;;;;;;;2.05;0.73;;;19.80;99.90;;;;;;5112434;27;20039;-72
2023/10/07 11:20:40;;;;;;;1.90;0.55;;;19.70;99.90;;;;;;5115962;27;20043;-73
2023/10/07 11:23:08;;;;;;;3.03;0.75;;;19.70;99.90;;;;;;5114688;27;20039;-73
2023/10/07 11:25:35;;;;;;;2.67;0.60;;;19.70;99.90;;;;;;5115895;27;20096;-73
2023/10/07 11:28:09;;;;;;;2.08;0.85;;;19.80;99.90;;;;;;5110739;27;20125;-73
2023/10/07 11:30:46;;;;;;;2.67;0.60;;;19.80;99.90;;;;;;5115563;27;20031;-72
2023/10/07 11:33:16;;;;;;;7.13;0.68;;;19.90;99.90;;;;;;5110231;27;20471;-72
2023/10/07 11:35:42;;;;;;;2.42;0.38;;;19.90;99.90;;;;;;5114282;27;20039;-72
2023/10/07 11:38:11;;;;;;;2.45;0.95;;;19.90;99.90;;;;;;5109779;27;20031;-75
2023/10/07 11:40:37;;;;;;;2.53;0.63;;;19.80;99.90;;;;;;5113578;27;20106;-73
2023/10/07 11:43:09;;;;;;;3.67;1.00;;;19.70;99.90;;;;;;5097250;27;20051;-73
2023/10/07 11:45:39;;;;;;;3.40;1.13;;;19.60;99.90;;;;;;5111568;27;20046;-72
2023/10/07 11:48:08;;;;;;;3.15;0.50;;;19.70;99.90;;;;;;5110935;27;20038;-72
2023/10/07 11:50:35;;;;;;;2.35;0.38;;;19.60;99.90;;;;;;5094467;27;20412;-73
2023/10/07 11:53:07;;;;;;;4.78;0.90;;;19.60;99.90;;;;;;5108994;27;20043;-73
2023/10/07 11:55:33;;;;;;;3.72;0.47;;;19.80;99.90;;;;;;5114845;27;20486;-73
2023/10/07 11:58:00;;;;;;;3.58;0.77;;;20.20;99.90;;;;;;5093128;27;20043;-73
2023/10/07 12:00:34;;;;;;;2.40;0.45;;;20.70;99.90;;;;;;5106489;27;20045;-73
2023/10/07 12:03:07;;;;;;;2.85;0.55;;;21.50;99.90;;;;;;5112804;27;20039;-73
2023/10/07 12:05:38;;;;;;;5.13;0.40;;;21.80;99.90;;;;;;5107049;27;20467;-73
2023/10/07 12:08:04;;;;;;;2.88;0.75;;;22.00;99.90;;;;;;5104314;27;20039;-73
2023/10/07 12:10:33;;;;;;;3.13;0.70;;;22.10;99.90;;;;;;5112045;27;20498;-73
2023/10/07 12:13:00;;;;;;;4.22;0.57;;;22.60;99.90;;;;;;5110579;27;20092;-73
2023/10/07 12:15:26;;;;;;;2.83;0.70;;;22.60;99.90;;;;;;5112345;27;20126;-74
2023/10/07 12:17:52;;;;;;;2.90;0.75;;;22.40;99.90;;;;;;5106516;27;20503;-73
2023/10/07 12:20:22;;;;;;;3.08;0.50;;;22.10;99.90;;;;;;5097277;27;20092;-73
2023/10/07 12:22:48;;;;;;;3.88;0.63;;;22.00;99.90;;;;;;5109426;27;20043;-73
2023/10/07 12:25:16;;;;;;;4.88;0.90;;;21.60;99.90;;;;;;5109591;27;20086;-73
2023/10/07 12:27:48;;;;;;;1.83;0.85;;;21.30;99.90;;;;;;5113359;27;20031;-73
2023/10/07 12:30:21;;;;;;;1.13;0.65;;;21.00;99.90;;;;;;5107236;27;20213;-74
2023/10/07 12:32:50;;;;;;;2.60;0.68;;;20.90;99.90;;;;;;5110501;27;20556;-74
2023/10/07 12:35:17;;;;;;;2.40;0.40;;;20.80;99.90;;;;;;5111181;27;20043;-74
2023/10/07 12:37:47;;;;;;;2.42;0.43;;;20.70;99.90;;;;;;5106096;27;20046;-74
2023/10/07 12:40:17;;;;;;;3.35;0.68;;;20.70;99.90;;;;;;5097189;27;20042;-74
2023/10/07 12:42:52;;;;;;;2.50;0.80;;;20.70;99.90;;;;;;5112107;27;20054;-74
2023/10/07 12:45:19;;;;;;;2.70;0.50;;;20.80;99.90;;;;;;5111965;27;20058;-73
2023/10/07 12:47:45;;;;;;;4.47;1.00;;;20.70;99.90;;;;;;5108837;27;20043;-74
2023/10/07 12:50:20;;;;;;;2.15;0.75;;;20.90;99.90;;;;;;5107290;27;20088;-74
2023/10/07 12:52:49;;;;;;;4.05;0.68;;;21.50;99.90;;;;;;5111158;27;20422;-74
2023/10/07 12:55:16;;;;;;;2.65;0.70;;;21.40;99.90;;;;;;5110408;27;20404;-74
2023/10/07 12:57:42;;;;;;;2.67;0.50;;;21.00;99.90;;;;;;5112801;27;20043;-74
2023/10/07 13:00:31;;;;;;;3.53;0.70;;;20.80;99.90;;;;;;5113042;27;20050;-74
2023/10/07 13:02:58;;;;;;;1.23;0.50;;;21.00;99.90;;;;;;5109238;27;20065;-74
2023/10/07 13:05:24;;;;;;;3.58;0.50;;;21.60;99.90;;;;;;5112140;27;20514;-74
2023/10/07 13:07:53;;;;;;;2.58;0.65;;;22.00;99.90;;;;;;5104826;27;20099;-74
2023/10/07 13:10:20;;;;;;;1.63;0.40;;;22.30;99.90;;;;;;5110273;27;20114;-74
2023/10/07 13:12:47;;;;;;;4.22;0.88;;;22.20;99.90;;;;;;5093568;27;20035;-74
2023/10/07 13:15:17;;;;;;;6.82;1.17;;;21.80;99.90;;;;;;5109628;27;20043;-74
2023/10/07 13:17:45;;;;;;;4.97;2.05;;;21.40;99.90;;;;;;5111001;27;20525;-73
2023/10/07 13:20:23;;;;;;;3.35;1.05;;;21.10;99.90;;;;;;5091305;27;20502;-73
2023/10/07 13:22:50;;;;;;;3.08;0.65;;;20.90;99.90;;;;;;5109902;27;20073;-74
2023/10/07 13:25:18;;;;;;;3.15;0.43;;;20.80;99.90;;;;;;5107771;27;20039;-74
2023/10/07 13:27:44;;;;;;;2.53;0.90;;;20.80;99.90;;;;;;5109383;27;20542;-73
2023/10/07 13:30:13;;;;;;;3.63;1.08;;;20.70;99.90;;;;;;5106697;27;20054;-73
2023/10/07 13:32:40;;;;;;;2.95;1.10;;;20.60;99.90;;;;;;5112524;27;20042;-73
2023/10/07 13:35:16;;;;;;;2.10;0.70;;;20.50;99.90;;;;;;5111832;27;20031;-74
2023/10/07 13:37:49;;;;;;;4.88;0.88;;;20.30;99.90;;;;;;5096439;28;20108;-72
2023/10/07 13:40:16;;;;;;;2.70;0.80;;;20.10;99.90;;;;;;5111240;27;20039;-72
2023/10/07 13:42:52;;;;;;;3.10;0.73;;;20.10;99.90;;;;;;5113923;27;20106;-72
2023/10/07 13:45:24;;;;;;;2.03;0.68;;;20.00;99.90;;;;;;5092592;28;20147;-75
2023/10/07 13:47:51;;;;;;;0.90;0.30;;;19.90;99.90;;;;;;5109192;28;20043;-73
2023/10/07 13:50:24;;;;;;;2.25;0.40;;;19.80;99.90;;;;;;5126943;27;20031;-73